sensor_id;sensor_type;location;lat;lon;timestamp;temperature;humidity
11035;DHT22;5571;48.110;-1.706;2023-07-08T00:00:41;23.70;99.90
11035;DHT22;5571;48.110;-1.706;2023-07-08T00:03:08;23.70;99.90
11035;DHT22;5571;48.110;-1.706;2023-07-08T00:05:34;23.80;99.90
11035;DHT22;5571;48.110;-1.706;2023-07-08T00:08:00;23.90;99.90
11035;DHT22;5571;48.110;-1.706;2023-07-08T00:10:27;23.90;99.90
11035;DHT22;5571;48.110;-1.706;2023-07-08T00:12:56;23.80;99.90
11035;DHT22;5571;48.110;-1.706;2023-07-08T00:15:25;23.90;99.90
11035;DHT22;5571;48.110;-1.706;2023-07-08T00:17:52;23.70;99.90
11035;DHT22;5571;48.110;-1.706;2023-07-08T00:20:38;23.60;99.90
11035;DHT22;5571;48.110;-1.706;2023-07-08T00:23:04;23.60;99.90
11035;DHT22;5571;48.110;-1.706;2023-07-08T00:25:31;23.50;99.90
11035;DHT22;5571;48.110;-1.706;2023-07-08T00:27:57;23.50;99.90
11035;DHT22;5571;48.110;-1.706;2023-07-08T00:30:28;23.50;99.90
11035;DHT22;5571;48.110;-1.706;2023-07-08T00:32:55;23.50;99.90
11035;DHT22;5571;48.110;-1.706;2023-07-08T00:35:22;23.40;99.90
11035;DHT22;5571;48.110;-1.706;2023-07-08T00:37:50;23.40;99.90
11035;DHT22;5571;48.110;-1.706;2023-07-08T00:40:22;23.40;99.90
11035;DHT22;5571;48.110;-1.706;2023-07-08T00:42:48;23.40;99.90
11035;DHT22;5571;48.110;-1.706;2023-07-08T00:48:24;23.30;99.90
11035;DHT22;5571;48.110;-1.706;2023-07-08T00:50:51;23.30;99.90
11035;DHT22;5571;48.110;-1.706;2023-07-08T00:55:50;23.10;99.90
11035;DHT22;5571;48.110;-1.706;2023-07-08T00:58:19;23.10;99.90
11035;DHT22;5571;48.110;-1.706;2023-07-08T01:00:46;23.10;99.90
11035;DHT22;5571;48.110;-1.706;2023-07-08T01:03:11;23.10;99.90
11035;DHT22;5571;48.110;-1.706;2023-07-08T01:05:37;23.20;99.90
11035;DHT22;5571;48.110;-1.706;2023-07-08T01:08:05;23.20;99.90
11035;DHT22;5571;48.110;-1.706;2023-07-08T01:10:42;23.20;99.90
11035;DHT22;5571;48.110;-1.706;2023-07-08T01:13:09;23.20;99.90
11035;DHT22;5571;48.110;-1.706;2023-07-08T01:15:41;23.10;99.90
11035;DHT22;5571;48.110;-1.706;2023-07-08T01:18:09;23.20;99.90
11035;DHT22;5571;48.110;-1.706;2023-07-08T01:20:37;23.20;99.90
11035;DHT22;5571;48.110;-1.706;2023-07-08T01:23:03;23.10;99.90
11035;DHT22;5571;48.110;-1.706;2023-07-08T01:25:31;23.20;99.90
11035;DHT22;5571;48.110;-1.706;2023-07-08T01:27:57;23.20;99.90
11035;DHT22;5571;48.110;-1.706;2023-07-08T01:30:23;23.30;99.90
11035;DHT22;5571;48.110;-1.706;2023-07-08T01:32:51;23.20;99.90
11035;DHT22;5571;48.110;-1.706;2023-07-08T01:35:20;23.20;99.90
11035;DHT22;5571;48.110;-1.706;2023-07-08T01:37:53;23.20;99.90
11035;DHT22;5571;48.110;-1.706;2023-07-08T01:42:45;23.30;99.90
11035;DHT22;5571;48.110;-1.706;2023-07-08T01:45:12;23.40;99.90
11035;DHT22;5571;48.110;-1.706;2023-07-08T01:47:39;23.40;99.90
11035;DHT22;5571;48.110;-1.706;2023-07-08T01:50:05;23.40;99.90
11035;DHT22;5571;48.110;-1.706;2023-07-08T01:52:32;23.40;99.90
11035;DHT22;5571;48.110;-1.706;2023-07-08T01:54:57;23.40;99.90
11035;DHT22;5571;48.110;-1.706;2023-07-08T01:57:23;23.30;99.90
11035;DHT22;5571;48.110;-1.706;2023-07-08T01:59:48;23.30;99.90
11035;DHT22;5571;48.110;-1.706;2023-07-08T02:02:15;23.30;99.90
11035;DHT22;5571;48.110;-1.706;2023-07-08T02:04:41;23.20;99.90
11035;DHT22;5571;48.110;-1.706;2023-07-08T02:07:06;23.20;99.90
11035;DHT22;5571;48.110;-1.706;2023-07-08T02:09:32;23.20;99.90
11035;DHT22;5571;48.110;-1.706;2023-07-08T02:11:57;23.10;99.90
11035;DHT22;5571;48.110;-1.706;2023-07-08T02:14:23;23.10;99.90
11035;DHT22;5571;48.110;-1.706;2023-07-08T02:16:49;23.10;99.90
11035;DHT22;5571;48.110;-1.706;2023-07-08T02:19:14;23.00;99.90
11035;DHT22;5571;48.110;-1.706;2023-07-08T02:21:40;23.10;99.90
11035;DHT22;5571;48.110;-1.706;2023-07-08T02:24:07;23.10;99.90
11035;DHT22;5571;48.110;-1.706;2023-07-08T02:26:32;23.10;99.90
11035;DHT22;5571;48.110;-1.706;2023-07-08T02:28:59;23.10;99.90
11035;DHT22;5571;48.110;-1.706;2023-07-08T02:31:25;23.10;99.90
11035;DHT22;5571;48.110;-1.706;2023-07-08T02:33:51;23.10;99.90
11035;DHT22;5571;48.110;-1.706;2023-07-08T02:36:17;23.10;99.90
11035;DHT22;5571;48.110;-1.706;2023-07-08T02:38:43;23.10;99.90
11035;DHT22;5571;48.110;-1.706;2023-07-08T02:41:09;23.00;99.90
11035;DHT22;5571;48.110;-1.706;2023-07-08T02:43:34;23.00;99.90
11035;DHT22;5571;48.110;-1.706;2023-07-08T02:46:00;22.90;99.90
11035;DHT22;5571;48.110;-1.706;2023-07-08T02:48:25;22.90;99.90
11035;DHT22;5571;48.110;-1.706;2023-07-08T02:50:51;22.90;99.90
11035;DHT22;5571;48.110;-1.706;2023-07-08T02:53:23;22.90;99.90
11035;DHT22;5571;48.110;-1.706;2023-07-08T02:55:48;22.90;99.90
11035;DHT22;5571;48.110;-1.706;2023-07-08T02:58:14;22.80;99.90
11035;DHT22;5571;48.110;-1.706;2023-07-08T03:00:39;22.90;99.90
11035;DHT22;5571;48.110;-1.706;2023-07-08T03:03:05;22.90;99.90
11035;DHT22;5571;48.110;-1.706;2023-07-08T03:05:31;22.90;99.90
11035;DHT22;5571;48.110;-1.706;2023-07-08T03:07:56;23.00;99.90
11035;DHT22;5571;48.110;-1.706;2023-07-08T03:10:22;22.90;99.90
11035;DHT22;5571;48.110;-1.706;2023-07-08T03:12:48;22.90;99.90
11035;DHT22;5571;48.110;-1.706;2023-07-08T03:15:13;22.90;99.90
11035;DHT22;5571;48.110;-1.706;2023-07-08T03:17:39;22.90;99.90
11035;DHT22;5571;48.110;-1.706;2023-07-08T03:20:06;22.80;99.90
11035;DHT22;5571;48.110;-1.706;2023-07-08T03:22:32;22.90;99.90
11035;DHT22;5571;48.110;-1.706;2023-07-08T03:24:58;22.80;99.90
11035;DHT22;5571;48.110;-1.706;2023-07-08T03:27:23;22.90;99.90
11035;DHT22;5571;48.110;-1.706;2023-07-08T03:29:49;22.90;99.90
11035;DHT22;5571;48.110;-1.706;2023-07-08T03:32:15;23.00;99.90
11035;DHT22;5571;48.110;-1.706;2023-07-08T03:34:40;23.00;99.90
11035;DHT22;5571;48.110;-1.706;2023-07-08T03:37:06;22.90;99.90
11035;DHT22;5571;48.110;-1.706;2023-07-08T03:39:34;22.80;99.90
11035;DHT22;5571;48.110;-1.706;2023-07-08T03:41:59;22.50;99.90
11035;DHT22;5571;48.110;-1.706;2023-07-08T03:44:25;22.40;99.90
11035;DHT22;5571;48.110;-1.706;2023-07-08T03:46:51;22.20;99.90
11035;DHT22;5571;48.110;-1.706;2023-07-08T03:49:18;22.10;99.90
11035;DHT22;5571;48.110;-1.706;2023-07-08T03:51:52;22.00;99.90
11035;DHT22;5571;48.110;-1.706;2023-07-08T03:54:24;22.00;99.90
11035;DHT22;5571;48.110;-1.706;2023-07-08T03:56:50;22.00;99.90
11035;DHT22;5571;48.110;-1.706;2023-07-08T03:59:15;22.10;99.90
11035;DHT22;5571;48.110;-1.706;2023-07-08T04:01:41;22.10;99.90
11035;DHT22;5571;48.110;-1.706;2023-07-08T04:04:09;22.10;99.90
11035;DHT22;5571;48.110;-1.706;2023-07-08T04:06:36;22.20;99.90
11035;DHT22;5571;48.110;-1.706;2023-07-08T04:09:02;22.20;99.90
11035;DHT22;5571;48.110;-1.706;2023-07-08T04:11:28;22.20;99.90
11035;DHT22;5571;48.110;-1.706;2023-07-08T04:13:53;22.20;99.90
11035;DHT22;5571;48.110;-1.706;2023-07-08T04:18:47;22.20;99.90
11035;DHT22;5571;48.110;-1.706;2023-07-08T04:21:16;22.20;99.90
11035;DHT22;5571;48.110;-1.706;2023-07-08T04:23:42;22.20;99.90
11035;DHT22;5571;48.110;-1.706;2023-07-08T04:26:08;22.20;99.90
11035;DHT22;5571;48.110;-1.706;2023-07-08T04:28:33;22.20;99.90
11035;DHT22;5571;48.110;-1.706;2023-07-08T04:30:59;22.20;99.90
11035;DHT22;5571;48.110;-1.706;2023-07-08T04:33:25;22.20;99.90
11035;DHT22;5571;48.110;-1.706;2023-07-08T04:35:51;22.20;99.90
11035;DHT22;5571;48.110;-1.706;2023-07-08T04:38:23;22.20;99.90
11035;DHT22;5571;48.110;-1.706;2023-07-08T04:40:49;22.00;99.90
11035;DHT22;5571;48.110;-1.706;2023-07-08T04:43:17;21.80;99.90
11035;DHT22;5571;48.110;-1.706;2023-07-08T04:45:45;21.70;99.90
11035;DHT22;5571;48.110;-1.706;2023-07-08T04:48:14;21.70;99.90
11035;DHT22;5571;48.110;-1.706;2023-07-08T04:50:44;21.80;99.90
11035;DHT22;5571;48.110;-1.706;2023-07-08T04:53:10;21.90;99.90
11035;DHT22;5571;48.110;-1.706;2023-07-08T04:55:39;22.00;99.90
11035;DHT22;5571;48.110;-1.706;2023-07-08T04:58:06;22.00;99.90
11035;DHT22;5571;48.110;-1.706;2023-07-08T05:00:32;21.90;99.90
11035;DHT22;5571;48.110;-1.706;2023-07-08T05:02:58;22.00;99.90
11035;DHT22;5571;48.110;-1.706;2023-07-08T05:05:23;21.80;99.90
11035;DHT22;5571;48.110;-1.706;2023-07-08T05:07:49;21.70;99.90
11035;DHT22;5571;48.110;-1.706;2023-07-08T05:10:15;21.70;99.90
11035;DHT22;5571;48.110;-1.706;2023-07-08T05:12:41;21.70;99.90
11035;DHT22;5571;48.110;-1.706;2023-07-08T05:15:07;21.70;99.90
11035;DHT22;5571;48.110;-1.706;2023-07-08T05:17:34;21.80;99.90
11035;DHT22;5571;48.110;-1.706;2023-07-08T05:19:59;21.80;99.90
11035;DHT22;5571;48.110;-1.706;2023-07-08T05:22:26;21.80;99.90
11035;DHT22;5571;48.110;-1.706;2023-07-08T05:24:53;21.80;99.90
11035;DHT22;5571;48.110;-1.706;2023-07-08T05:27:22;21.80;99.90
11035;DHT22;5571;48.110;-1.706;2023-07-08T05:29:49;21.80;99.90
11035;DHT22;5571;48.110;-1.706;2023-07-08T05:32:15;21.80;99.90
11035;DHT22;5571;48.110;-1.706;2023-07-08T05:34:40;21.60;99.90
11035;DHT22;5571;48.110;-1.706;2023-07-08T05:37:06;21.60;99.90
11035;DHT22;5571;48.110;-1.706;2023-07-08T05:39:32;21.60;99.90
11035;DHT22;5571;48.110;-1.706;2023-07-08T05:41:58;21.60;99.90
11035;DHT22;5571;48.110;-1.706;2023-07-08T05:44:23;21.50;99.90
11035;DHT22;5571;48.110;-1.706;2023-07-08T05:46:49;21.50;99.90
11035;DHT22;5571;48.110;-1.706;2023-07-08T05:49:16;21.50;99.90
11035;DHT22;5571;48.110;-1.706;2023-07-08T05:51:47;21.70;99.90
11035;DHT22;5571;48.110;-1.706;2023-07-08T05:54:13;21.80;99.90
11035;DHT22;5571;48.110;-1.706;2023-07-08T05:56:39;21.90;99.90
11035;DHT22;5571;48.110;-1.706;2023-07-08T05:59:04;22.00;99.90
11035;DHT22;5571;48.110;-1.706;2023-07-08T06:01:30;22.10;99.90
11035;DHT22;5571;48.110;-1.706;2023-07-08T06:03:57;22.00;99.90
11035;DHT22;5571;48.110;-1.706;2023-07-08T06:06:25;22.00;99.90
11035;DHT22;5571;48.110;-1.706;2023-07-08T06:08:51;22.10;99.90
11035;DHT22;5571;48.110;-1.706;2023-07-08T06:11:17;22.10;99.90
11035;DHT22;5571;48.110;-1.706;2023-07-08T06:13:43;22.10;99.90
11035;DHT22;5571;48.110;-1.706;2023-07-08T06:16:09;22.20;99.90
11035;DHT22;5571;48.110;-1.706;2023-07-08T06:18:34;22.20;99.90
11035;DHT22;5571;48.110;-1.706;2023-07-08T06:21:00;22.20;99.90
11035;DHT22;5571;48.110;-1.706;2023-07-08T06:23:27;22.30;99.90
11035;DHT22;5571;48.110;-1.706;2023-07-08T06:25:53;22.30;99.90
11035;DHT22;5571;48.110;-1.706;2023-07-08T06:28:19;22.30;99.90
11035;DHT22;5571;48.110;-1.706;2023-07-08T06:30:45;22.30;99.90
11035;DHT22;5571;48.110;-1.706;2023-07-08T06:33:11;22.30;99.90
11035;DHT22;5571;48.110;-1.706;2023-07-08T06:35:38;22.30;99.90
11035;DHT22;5571;48.110;-1.706;2023-07-08T06:38:04;22.30;99.90
11035;DHT22;5571;48.110;-1.706;2023-07-08T06:40:31;22.30;99.90
11035;DHT22;5571;48.110;-1.706;2023-07-08T06:42:57;22.30;99.90
11035;DHT22;5571;48.110;-1.706;2023-07-08T06:45:22;22.30;99.90
11035;DHT22;5571;48.110;-1.706;2023-07-08T06:47:48;22.20;99.90
11035;DHT22;5571;48.110;-1.706;2023-07-08T06:50:13;22.20;99.90
11035;DHT22;5571;48.110;-1.706;2023-07-08T06:52:39;22.30;99.90
11035;DHT22;5571;48.110;-1.706;2023-07-08T06:55:07;22.20;99.90
11035;DHT22;5571;48.110;-1.706;2023-07-08T06:57:34;22.20;99.90
11035;DHT22;5571;48.110;-1.706;2023-07-08T07:00:00;22.10;99.90
11035;DHT22;5571;48.110;-1.706;2023-07-08T07:02:26;22.10;99.90
11035;DHT22;5571;48.110;-1.706;2023-07-08T07:04:52;22.00;99.90
11035;DHT22;5571;48.110;-1.706;2023-07-08T07:07:18;22.10;99.90
11035;DHT22;5571;48.110;-1.706;2023-07-08T07:09:43;22.10;99.90
11035;DHT22;5571;48.110;-1.706;2023-07-08T07:12:09;22.10;99.90
11035;DHT22;5571;48.110;-1.706;2023-07-08T07:14:35;22.00;99.90
11035;DHT22;5571;48.110;-1.706;2023-07-08T07:17:00;22.00;99.90
11035;DHT22;5571;48.110;-1.706;2023-07-08T07:19:26;22.00;99.90
11035;DHT22;5571;48.110;-1.706;2023-07-08T07:21:52;22.00;99.90
11035;DHT22;5571;48.110;-1.706;2023-07-08T07:24:18;21.90;99.90
11035;DHT22;5571;48.110;-1.706;2023-07-08T07:26:44;21.80;99.90
11035;DHT22;5571;48.110;-1.706;2023-07-08T07:29:09;21.80;99.90
11035;DHT22;5571;48.110;-1.706;2023-07-08T07:31:35;21.90;99.90
11035;DHT22;5571;48.110;-1.706;2023-07-08T07:34:01;21.70;99.90
11035;DHT22;5571;48.110;-1.706;2023-07-08T07:36:28;21.70;99.90
11035;DHT22;5571;48.110;-1.706;2023-07-08T07:38:54;21.50;99.90
11035;DHT22;5571;48.110;-1.706;2023-07-08T07:41:20;21.50;99.90
11035;DHT22;5571;48.110;-1.706;2023-07-08T07:43:46;21.50;99.90
11035;DHT22;5571;48.110;-1.706;2023-07-08T07:46:12;21.70;99.90
11035;DHT22;5571;48.110;-1.706;2023-07-08T07:48:38;21.80;99.90
11035;DHT22;5571;48.110;-1.706;2023-07-08T07:51:04;21.80;99.90
11035;DHT22;5571;48.110;-1.706;2023-07-08T07:53:31;21.70;99.90
11035;DHT22;5571;48.110;-1.706;2023-07-08T07:56:00;21.70;99.90
11035;DHT22;5571;48.110;-1.706;2023-07-08T07:58:26;21.80;99.90
11035;DHT22;5571;48.110;-1.706;2023-07-08T08:00:52;21.90;99.90
11035;DHT22;5571;48.110;-1.706;2023-07-08T08:03:18;22.00;99.90
11035;DHT22;5571;48.110;-1.706;2023-07-08T08:05:44;22.10;99.90
11035;DHT22;5571;48.110;-1.706;2023-07-08T08:08:09;22.30;99.90
11035;DHT22;5571;48.110;-1.706;2023-07-08T08:10:35;22.30;99.90
11035;DHT22;5571;48.110;-1.706;2023-07-08T08:13:02;22.40;99.90
11035;DHT22;5571;48.110;-1.706;2023-07-08T08:15:28;22.50;99.90
11035;DHT22;5571;48.110;-1.706;2023-07-08T08:17:54;22.60;99.90
11035;DHT22;5571;48.110;-1.706;2023-07-08T08:20:21;22.70;99.90
11035;DHT22;5571;48.110;-1.706;2023-07-08T08:22:47;22.90;99.90
11035;DHT22;5571;48.110;-1.706;2023-07-08T08:25:14;22.90;99.90
11035;DHT22;5571;48.110;-1.706;2023-07-08T08:27:40;23.10;99.90
11035;DHT22;5571;48.110;-1.706;2023-07-08T08:30:06;23.00;99.90
11035;DHT22;5571;48.110;-1.706;2023-07-08T08:32:33;23.00;99.90
11035;DHT22;5571;48.110;-1.706;2023-07-08T08:34:58;23.10;99.90
11035;DHT22;5571;48.110;-1.706;2023-07-08T08:37:24;23.20;99.90
11035;DHT22;5571;48.110;-1.706;2023-07-08T08:39:49;23.10;99.90
11035;DHT22;5571;48.110;-1.706;2023-07-08T08:42:28;23.00;99.90
11035;DHT22;5571;48.110;-1.706;2023-07-08T08:44:56;23.20;99.90
11035;DHT22;5571;48.110;-1.706;2023-07-08T08:50:03;23.40;99.90
11035;DHT22;5571;48.110;-1.706;2023-07-08T08:52:29;23.40;99.90
11035;DHT22;5571;48.110;-1.706;2023-07-08T08:54:55;23.40;99.90
11035;DHT22;5571;48.110;-1.706;2023-07-08T08:57:37;23.50;99.90
11035;DHT22;5571;48.110;-1.706;2023-07-08T09:00:08;23.50;99.90
11035;DHT22;5571;48.110;-1.706;2023-07-08T09:02:57;23.50;99.90
11035;DHT22;5571;48.110;-1.706;2023-07-08T09:05:25;23.80;99.90
11035;DHT22;5571;48.110;-1.706;2023-07-08T09:08:14;23.90;99.90
11035;DHT22;5571;48.110;-1.706;2023-07-08T09:10:49;23.90;99.90
11035;DHT22;5571;48.110;-1.706;2023-07-08T09:13:36;23.90;99.90
11035;DHT22;5571;48.110;-1.706;2023-07-08T09:19:12;23.80;99.90
11035;DHT22;5571;48.110;-1.706;2023-07-08T09:22:04;23.80;99.90
11035;DHT22;5571;48.110;-1.706;2023-07-08T09:24:41;23.90;99.90
11035;DHT22;5571;48.110;-1.706;2023-07-08T09:27:08;23.90;99.90
11035;DHT22;5571;48.110;-1.706;2023-07-08T09:29:34;24.30;99.90
11035;DHT22;5571;48.110;-1.706;2023-07-08T09:32:18;24.60;99.90
11035;DHT22;5571;48.110;-1.706;2023-07-08T09:34:50;24.50;99.90
11035;DHT22;5571;48.110;-1.706;2023-07-08T09:37:36;24.50;99.90
11035;DHT22;5571;48.110;-1.706;2023-07-08T09:42:50;24.70;99.90
11035;DHT22;5571;48.110;-1.706;2023-07-08T09:45:22;24.60;99.90
11035;DHT22;5571;48.110;-1.706;2023-07-08T09:47:53;24.70;99.90
11035;DHT22;5571;48.110;-1.706;2023-07-08T09:50:27;24.90;99.90
11035;DHT22;5571;48.110;-1.706;2023-07-08T09:52:55;25.10;99.90
11035;DHT22;5571;48.110;-1.706;2023-07-08T09:55:23;25.20;99.90
11035;DHT22;5571;48.110;-1.706;2023-07-08T09:57:51;25.10;99.90
11035;DHT22;5571;48.110;-1.706;2023-07-08T10:00:25;25.00;99.90
11035;DHT22;5571;48.110;-1.706;2023-07-08T10:02:56;25.40;99.90
11035;DHT22;5571;48.110;-1.706;2023-07-08T10:05:32;25.50;99.90
11035;DHT22;5571;48.110;-1.706;2023-07-08T10:08:00;25.40;99.90
11035;DHT22;5571;48.110;-1.706;2023-07-08T10:10:36;25.50;99.90
11035;DHT22;5571;48.110;-1.706;2023-07-08T10:15:47;25.70;99.90
11035;DHT22;5571;48.110;-1.706;2023-07-08T10:18:16;25.60;99.90
11035;DHT22;5571;48.110;-1.706;2023-07-08T10:20:52;25.70;99.90
11035;DHT22;5571;48.110;-1.706;2023-07-08T10:26:18;26.30;99.90
11035;DHT22;5571;48.110;-1.706;2023-07-08T10:34:55;26.50;99.90
11035;DHT22;5571;48.110;-1.706;2023-07-08T10:41:11;26.50;99.90
11035;DHT22;5571;48.110;-1.706;2023-07-08T10:54:18;27.00;99.90
11035;DHT22;5571;48.110;-1.706;2023-07-08T11:07:39;26.80;99.90
11035;DHT22;5571;48.110;-1.706;2023-07-08T11:10:20;26.80;99.90
11035;DHT22;5571;48.110;-1.706;2023-07-08T11:12:51;26.70;99.90
11035;DHT22;5571;48.110;-1.706;2023-07-08T11:15:25;26.60;99.90
11035;DHT22;5571;48.110;-1.706;2023-07-08T11:17:59;26.80;99.90
11035;DHT22;5571;48.110;-1.706;2023-07-08T11:20:35;26.80;99.90
11035;DHT22;5571;48.110;-1.706;2023-07-08T11:23:49;26.70;99.90
11035;DHT22;5571;48.110;-1.706;2023-07-08T11:26:03;26.80;99.90
11035;DHT22;5571;48.110;-1.706;2023-07-08T11:28:30;27.20;99.90
11035;DHT22;5571;48.110;-1.706;2023-07-08T11:30:58;27.10;99.90
11035;DHT22;5571;48.110;-1.706;2023-07-08T11:33:26;27.20;99.90
11035;DHT22;5571;48.110;-1.706;2023-07-08T11:35:53;27.00;99.90
11035;DHT22;5571;48.110;-1.706;2023-07-08T11:38:24;27.10;99.90
11035;DHT22;5571;48.110;-1.706;2023-07-08T11:40:58;27.20;99.90
11035;DHT22;5571;48.110;-1.706;2023-07-08T11:43:27;27.10;99.90
11035;DHT22;5571;48.110;-1.706;2023-07-08T11:45:56;27.10;99.90
11035;DHT22;5571;48.110;-1.706;2023-07-08T11:48:29;27.20;99.90
11035;DHT22;5571;48.110;-1.706;2023-07-08T11:50:55;27.10;99.90
11035;DHT22;5571;48.110;-1.706;2023-07-08T11:58:59;26.70;99.90
11035;DHT22;5571;48.110;-1.706;2023-07-08T12:01:37;26.70;99.90
11035;DHT22;5571;48.110;-1.706;2023-07-08T12:09:14;26.40;99.90
11035;DHT22;5571;48.110;-1.706;2023-07-08T12:11:43;26.40;99.90
11035;DHT22;5571;48.110;-1.706;2023-07-08T12:14:10;26.40;99.90
11035;DHT22;5571;48.110;-1.706;2023-07-08T12:16:36;26.50;99.90
11035;DHT22;5571;48.110;-1.706;2023-07-08T12:19:04;26.60;99.90
11035;DHT22;5571;48.110;-1.706;2023-07-08T12:21:35;26.80;99.90
11035;DHT22;5571;48.110;-1.706;2023-07-08T12:24:05;27.10;99.90
11035;DHT22;5571;48.110;-1.706;2023-07-08T12:26:33;27.20;99.90
11035;DHT22;5571;48.110;-1.706;2023-07-08T12:28:58;27.30;99.90
11035;DHT22;5571;48.110;-1.706;2023-07-08T12:31:24;27.50;99.90
11035;DHT22;5571;48.110;-1.706;2023-07-08T12:33:51;27.30;99.90
11035;DHT22;5571;48.110;-1.706;2023-07-08T12:36:22;27.30;99.90
11035;DHT22;5571;48.110;-1.706;2023-07-08T12:38:51;27.20;99.90
11035;DHT22;5571;48.110;-1.706;2023-07-08T12:41:22;27.10;99.90
11035;DHT22;5571;48.110;-1.706;2023-07-08T12:43:49;26.90;99.90
11035;DHT22;5571;48.110;-1.706;2023-07-08T12:46:17;26.80;99.90
11035;DHT22;5571;48.110;-1.706;2023-07-08T12:48:43;27.00;99.90
11035;DHT22;5571;48.110;-1.706;2023-07-08T12:51:15;27.40;99.90
11035;DHT22;5571;48.110;-1.706;2023-07-08T12:53:43;27.60;99.90
11035;DHT22;5571;48.110;-1.706;2023-07-08T12:56:11;27.50;99.90
11035;DHT22;5571;48.110;-1.706;2023-07-08T12:58:43;27.30;99.90
11035;DHT22;5571;48.110;-1.706;2023-07-08T13:01:16;27.00;99.90
11035;DHT22;5571;48.110;-1.706;2023-07-08T13:03:44;26.80;99.90
11035;DHT22;5571;48.110;-1.706;2023-07-08T13:06:15;26.80;99.90
11035;DHT22;5571;48.110;-1.706;2023-07-08T13:08:42;26.80;99.90
11035;DHT22;5571;48.110;-1.706;2023-07-08T13:11:08;26.80;99.90
11035;DHT22;5571;48.110;-1.706;2023-07-08T13:13:36;26.60;99.90
11035;DHT22;5571;48.110;-1.706;2023-07-08T13:16:04;26.70;99.90
11035;DHT22;5571;48.110;-1.706;2023-07-08T13:18:37;26.70;99.90
11035;DHT22;5571;48.110;-1.706;2023-07-08T13:21:06;26.90;99.90
11035;DHT22;5571;48.110;-1.706;2023-07-08T13:23:33;26.80;99.90
11035;DHT22;5571;48.110;-1.706;2023-07-08T13:26:00;27.00;99.90
11035;DHT22;5571;48.110;-1.706;2023-07-08T13:28:28;26.90;99.90
11035;DHT22;5571;48.110;-1.706;2023-07-08T13:30:59;27.10;99.90
11035;DHT22;5571;48.110;-1.706;2023-07-08T13:33:33;27.30;99.90
11035;DHT22;5571;48.110;-1.706;2023-07-08T13:36:02;27.40;99.90
11035;DHT22;5571;48.110;-1.706;2023-07-08T13:38:34;27.70;99.90
11035;DHT22;5571;48.110;-1.706;2023-07-08T13:41:05;27.70;99.90
11035;DHT22;5571;48.110;-1.706;2023-07-08T13:43:37;27.50;99.90
11035;DHT22;5571;48.110;-1.706;2023-07-08T13:46:03;27.30;99.90
11035;DHT22;5571;48.110;-1.706;2023-07-08T13:48:43;27.30;99.90
11035;DHT22;5571;48.110;-1.706;2023-07-08T13:51:18;27.30;99.90
11035;DHT22;5571;48.110;-1.706;2023-07-08T13:53:45;27.20;99.90
11035;DHT22;5571;48.110;-1.706;2023-07-08T13:58:45;27.10;99.90
11035;DHT22;5571;48.110;-1.706;2023-07-08T14:01:32;27.10;99.90
11035;DHT22;5571;48.110;-1.706;2023-07-08T14:03:58;27.20;99.90
11035;DHT22;5571;48.110;-1.706;2023-07-08T14:06:31;27.30;99.90
11035;DHT22;5571;48.110;-1.706;2023-07-08T14:09:14;27.20;99.90
11035;DHT22;5571;48.110;-1.706;2023-07-08T14:11:41;27.10;99.90
11035;DHT22;5571;48.110;-1.706;2023-07-08T14:14:08;27.00;99.90
11035;DHT22;5571;48.110;-1.706;2023-07-08T14:16:36;27.10;99.90
11035;DHT22;5571;48.110;-1.706;2023-07-08T14:19:04;27.00;99.90
11035;DHT22;5571;48.110;-1.706;2023-07-08T14:21:32;26.80;99.90
11035;DHT22;5571;48.110;-1.706;2023-07-08T14:23:58;26.90;99.90
11035;DHT22;5571;48.110;-1.706;2023-07-08T14:26:24;26.70;99.90
11035;DHT22;5571;48.110;-1.706;2023-07-08T14:28:50;26.60;99.90
11035;DHT22;5571;48.110;-1.706;2023-07-08T14:31:22;26.70;99.90
11035;DHT22;5571;48.110;-1.706;2023-07-08T14:33:50;26.60;99.90
11035;DHT22;5571;48.110;-1.706;2023-07-08T14:36:18;26.50;99.90
11035;DHT22;5571;48.110;-1.706;2023-07-08T14:38:44;26.70;99.90
11035;DHT22;5571;48.110;-1.706;2023-07-08T14:41:09;26.50;99.90
11035;DHT22;5571;48.110;-1.706;2023-07-08T14:43:35;26.50;99.90
11035;DHT22;5571;48.110;-1.706;2023-07-08T14:46:04;26.50;99.90
11035;DHT22;5571;48.110;-1.706;2023-07-08T14:48:32;26.60;99.90
11035;DHT22;5571;48.110;-1.706;2023-07-08T14:50:58;26.80;99.90
11035;DHT22;5571;48.110;-1.706;2023-07-08T14:53:24;26.80;99.90
11035;DHT22;5571;48.110;-1.706;2023-07-08T14:55:53;26.80;99.90
11035;DHT22;5571;48.110;-1.706;2023-07-08T14:58:26;26.70;99.90
11035;DHT22;5571;48.110;-1.706;2023-07-08T15:00:55;26.70;99.90
11035;DHT22;5571;48.110;-1.706;2023-07-08T15:03:22;26.80;99.90
11035;DHT22;5571;48.110;-1.706;2023-07-08T15:05:48;26.80;99.90
11035;DHT22;5571;48.110;-1.706;2023-07-08T15:08:14;26.90;99.90
11035;DHT22;5571;48.110;-1.706;2023-07-08T15:10:51;26.80;99.90
11035;DHT22;5571;48.110;-1.706;2023-07-08T15:13:19;26.90;99.90
11035;DHT22;5571;48.110;-1.706;2023-07-08T15:15:46;27.10;99.90
11035;DHT22;5571;48.110;-1.706;2023-07-08T15:18:14;27.00;99.90
11035;DHT22;5571;48.110;-1.706;2023-07-08T15:20:41;26.80;99.90
11035;DHT22;5571;48.110;-1.706;2023-07-08T15:23:07;26.80;99.90
11035;DHT22;5571;48.110;-1.706;2023-07-08T15:25:33;26.50;99.90
11035;DHT22;5571;48.110;-1.706;2023-07-08T15:28:01;26.40;99.90
11035;DHT22;5571;48.110;-1.706;2023-07-08T15:30:28;26.60;99.90
11035;DHT22;5571;48.110;-1.706;2023-07-08T15:32:55;26.80;99.90
11035;DHT22;5571;48.110;-1.706;2023-07-08T15:35:23;26.80;99.90
11035;DHT22;5571;48.110;-1.706;2023-07-08T15:37:55;26.70;99.90
11035;DHT22;5571;48.110;-1.706;2023-07-08T15:40:22;26.50;99.90
11035;DHT22;5571;48.110;-1.706;2023-07-08T15:42:51;26.40;99.90
11035;DHT22;5571;48.110;-1.706;2023-07-08T15:45:31;26.40;99.90
11035;DHT22;5571;48.110;-1.706;2023-07-08T15:47:57;26.40;99.90
11035;DHT22;5571;48.110;-1.706;2023-07-08T15:50:25;26.40;99.90
11035;DHT22;5571;48.110;-1.706;2023-07-08T15:52:52;26.50;99.90
11035;DHT22;5571;48.110;-1.706;2023-07-08T15:55:28;26.50;99.90
11035;DHT22;5571;48.110;-1.706;2023-07-08T15:57:57;26.40;99.90
11035;DHT22;5571;48.110;-1.706;2023-07-08T16:00:27;26.40;99.90
11035;DHT22;5571;48.110;-1.706;2023-07-08T16:02:56;26.40;99.90
11035;DHT22;5571;48.110;-1.706;2023-07-08T16:05:23;26.40;99.90
11035;DHT22;5571;48.110;-1.706;2023-07-08T16:07:51;26.30;99.90
11035;DHT22;5571;48.110;-1.706;2023-07-08T16:10:17;26.00;99.90
11035;DHT22;5571;48.110;-1.706;2023-07-08T16:12:44;25.80;99.90
11035;DHT22;5571;48.110;-1.706;2023-07-08T16:15:16;25.90;99.90
11035;DHT22;5571;48.110;-1.706;2023-07-08T16:17:43;26.10;99.90
11035;DHT22;5571;48.110;-1.706;2023-07-08T16:20:20;26.20;99.90
11035;DHT22;5571;48.110;-1.706;2023-07-08T16:22:46;26.50;99.90
11035;DHT22;5571;48.110;-1.706;2023-07-08T16:25:17;26.70;99.90
11035;DHT22;5571;48.110;-1.706;2023-07-08T16:27:47;26.50;99.90
11035;DHT22;5571;48.110;-1.706;2023-07-08T16:30:17;26.20;99.90
11035;DHT22;5571;48.110;-1.706;2023-07-08T16:32:43;26.30;99.90
11035;DHT22;5571;48.110;-1.706;2023-07-08T16:35:14;26.40;99.90
11035;DHT22;5571;48.110;-1.706;2023-07-08T16:37:40;26.50;99.90
11035;DHT22;5571;48.110;-1.706;2023-07-08T16:40:21;26.60;99.90
11035;DHT22;5571;48.110;-1.706;2023-07-08T16:42:48;26.60;99.90
11035;DHT22;5571;48.110;-1.706;2023-07-08T16:45:16;26.80;99.90